Home > Products > Valid Products > MTR

000
SAUS44 KLCH 301855
MTRP92
METAR KP92 301853Z AUTO 26004KT 31/22 A3003 RMK AO1 SLP170 T03110217





000
SAUS44 KLCH 301754
MTRP92
METAR KP92 301753Z AUTO 26005KT 31/22 A3005 RMK AO1 SLP175 T03110217
10311 20233 58005





000
SAUS44 KLCH 301654
MTRP92
METAR KP92 301653Z AUTO VRB03KT 30/22 A3006 RMK AO1 SLP178 T03000217





000
SAUS44 KLCH 301554
MTRP92
METAR KP92 301553Z AUTO VRB03KT 29/22 A3007 RMK AO1 SLP181 T02940217





000
SAUS44 KLCH 301454
MTRP92
METAR KP92 301453Z AUTO VRB04KT 28/21 A3007 RMK AO1 SLP180 T02830211
51003





000
SAUS44 KLCH 301354
MTRP92
METAR KP92 301353Z AUTO VRB04KT 27/22 A3006 RMK AO1 SLP180 T02670217





000
SAUS44 KLCH 301254
MTRP92
METAR KP92 301253Z AUTO VRB03KT 24/21 A3006 RMK AO1 SLP179 T02440211





000
SAUS44 KLCH 301154
MTRP92
METAR KP92 301153Z AUTO 00000KT 23/21 A3006 RMK AO1 SLP178 T02330211
10250 20233 53008





000
SAUS44 KLCH 301055
MTRP92
METAR KP92 301053Z AUTO 00000KT 23/21 A3005 RMK AO1 SLP175 T02330211





000
SAUS44 KLCH 300955
MTRP92
METAR KP92 300953Z AUTO 00000KT 24/21 A3004 RMK AO1 SLP170 T02390211





000
SAUS44 KLCH 300855
MTRP92
METAR KP92 300853Z AUTO 00000KT 24/22 A3003 RMK AO1 SLP169 T02440217
55002





000
SAUS44 KLCH 300754
MTRP92
METAR KP92 300753Z AUTO 00000KT 25/22 A3003 RMK AO1 SLP168 T02500217





000
SAUS44 KLCH 300654
MTRP92
METAR KP92 300653Z AUTO 00000KT 24/22 A3003 RMK AO1 SLP167 T02440222





000
SAUS44 KLCH 300555
MTRP92
METAR KP92 300553Z AUTO 00000KT 25/22 A3004 RMK AO1 SLP171 T02500222
10311 20250 403220250 50004





000
SAUS44 KLCH 300455
MTRP92
METAR KP92 300453Z AUTO 00000KT 26/22 A3004 RMK AO1 SLP173 T02560217





000
SAUS44 KLCH 300355
MTRP92
METAR KP92 300353Z AUTO 01003KT 27/21 A3004 RMK AO1 SLP171 T02670211





000
SAUS44 KLCH 300254
MTRP92
METAR KP92 300253Z AUTO 00000KT 27/22 A3003 RMK AO1 SLP168 T02670217





000
SAUS44 KLCH 300154
MTRP92
METAR KP92 300153Z AUTO 00000KT 28/22 A3002 RMK AO1 SLP164 T02780222





000
SAUS44 KLCH 300055
MTRP92
METAR KP92 300053Z AUTO 00000KT 29/22 A3002 RMK AO1 SLP164 T02890222





000
SAUS44 KLCH 292355
MTRP92
METAR KP92 292353Z AUTO 02003KT 31/23 A3000 RMK AO1 SLP160 T03110228
10322 20306 56008





000
SAUS44 KLCH 292254
MTRP92
METAR KP92 292253Z AUTO VRB03KT 32/22 A3001 RMK AO1 SLP160 T03170222





000
SAUS44 KLCH 292154
MTRP92
METAR KP92 292153Z AUTO 28004KT 32/22 A3001 RMK AO1 SLP163 T03170222





000
SAUS44 KLCH 292054
MTRP92
METAR KP92 292053Z AUTO VRB03KT 32/22 A3003 RMK AO1 SLP168 T03170217
58010





000
SAUS44 KLCH 291954
MTRP92
METAR KP92 291953Z AUTO VRB03KT 31/22 A3004 RMK AO1 SLP172 T03110217





000
SAUS44 KLCH 291855
MTRP92
METAR KP92 291853Z AUTO 00000KT 31/23 A3005 RMK AO1 SLP175 T03110228





000
SAUS44 KLCH 291755
MTRP92
METAR KP92 291753Z AUTO 11003KT 31/23 A3006 RMK AO1 SLP178 T03110228
10311 20261 58002





000
SAUS44 KLCH 291655
MTRP92
METAR KP92 291653Z AUTO 00000KT 31/24 A3007 RMK AO1 SLP183 T03060239





000
SAUS44 KLCH 291555
MTRP92
METAR KP92 291553Z AUTO VRB03KT 29/24 A3007 RMK AO1 SLP183 T02940244





000
SAUS44 KLCH 291454
MTRP92
METAR KP92 291453Z AUTO VRB03KT 28/24 A3007 RMK AO1 SLP181 T02780244





000
SAUS44 KLCH 291355
MTRP92
METAR KP92 291353Z AUTO 00000KT 27/25 A3005 RMK AO1 SLP177 T02720250





000
SAUS44 KLCH 291255
MTRP92
METAR KP92 291253Z AUTO 00000KT 27/25 A3007 RMK AO1 SLP182 T02670250





000
SAUS44 KLCH 291154
MTRP92
METAR KP92 291153Z AUTO 00000KT 26/24 A3005 RMK AO1 SLP175 T02610244
10278 20250 51016





000
SAUS44 KLCH 291054
MTRP92
METAR KP92 291053Z AUTO 00000KT 27/24 A3003 RMK AO1 SLP167 T02670244





000
SAUS44 KLCH 290955
MTRP92
METAR KP92 290953Z AUTO 35012G17KT 27/24 A3004 RMK AO1 PRESRR SLP173
T02670239





000
SAUS44 KLCH 290855
MTRP92
METAR KP92 290853Z AUTO 00000KT 28/24 A3000 RMK AO1 PRESRR SLP160
T02780244 55002





000
SAUS44 KLCH 290755
MTRP92
METAR KP92 290753Z AUTO 11003KT 28/24 A2998 RMK AO1 SLP153 T02780244





000
SAUS44 KLCH 290654
MTRP92
METAR KP92 290653Z AUTO 00000KT 28/24 A3000 RMK AO1 SLP159 T02780239





000
SAUS44 KLCH 290554
MTRP92
METAR KP92 290553Z AUTO 00000KT 27/23 A3001 RMK AO1 SLP161 T02720233
10317 20267 403390267





000
SAUS44 KLCH 290454
MTRP92
METAR KP92 290453Z AUTO 00000KT 27/23 A3002 RMK AO1 SLP165 T02720228





000
SAUS44 KLCH 290355
MTRP92
METAR KP92 290353Z AUTO 35005KT 28/23 A3004 RMK AO1 SLP173 T02830228





000
SAUS44 KLCH 290254
MTRP92
METAR KP92 290253Z AUTO 26007KT 31/27 A3003 RMK AO1 SLP168 T03110267
53012





000
SAUS44 KLCH 290154
MTRP92
METAR KP92 290153Z AUTO 28007KT 240V320 31/27 A3002 RMK AO1 SLP165
T03110267





000
SAUS44 KLCH 290054
MTRP92
METAR KP92 290053Z AUTO VRB06KT 32/27 A2999 RMK AO1 SLP157 T03170267





000
SAUS44 KLCH 282354
MTRP92
METAR KP92 282353Z AUTO VRB06KT 32/26 A3000 RMK AO1 SLP157 T03170261
10339 20317 56015





000
SAUS44 KLCH 282255
MTRP92
METAR KP92 282253Z AUTO VRB05KT 32/26 A3000 RMK AO1 SLP158 T03220261





000
SAUS44 KLCH 282154
MTRP92
METAR KP92 282153Z AUTO VRB06KT 32/26 A3003 RMK AO1 SLP167 T03220261





000
SAUS44 KLCH 282055
MTRP92
METAR KP92 282053Z AUTO 26005KT 34/26 A3004 RMK AO1 SLP172 T03390256
58015





000
SAUS44 KLCH 281955
MTRP92
METAR KP92 281953Z AUTO VRB06KT 34/24 A3006 RMK AO1 SLP178 T03390244





000
SAUS44 KLCH 281855
MTRP92
METAR KP92 281853Z AUTO 28006KT 33/25 A3007 RMK AO1 SLP182 T03330250





000
SAUS44 KLCH 281756
MTRP92
METAR KP92 281753Z AUTO VRB04KT 33/26 A3009 RMK AO1 SLP187 T03280261
10328 20300





000
SAUS44 KLCH 281654
MTRP92
METAR KP92 281653Z AUTO VRB06KT 32/26 A3010 RMK AO1 SLP192 T03170261





000
SAUS44 KLCH 281554
MTRP92
METAR KP92 281553Z AUTO 29007KT 250V320 32/26 A3010 RMK AO1 SLP194
T03170256 $





000
SAUS44 KLCH 281454
MTRP92
METAR KP92 281453Z AUTO VRB05KT 32/26 A3011 RMK AO1 SLP196 T03170261
51011 $





000
SAUS44 KLCH 281354
MTRP92
METAR KP92 281353Z AUTO VRB05KT 31/26 A3011 RMK AO1 SLP196 T03110256
$





000
SAUS44 KLCH 281254
MTRP92
METAR KP92 281253Z AUTO 28005KT 31/26 A3009 RMK AO1 SLP190 T03060256
$





000
SAUS44 KLCH 281154
MTRP92
METAR KP92 281153Z AUTO VRB04KT 30/25 A3008 RMK AO1 SLP185 T03000250
10306 20300 53015 $





000
SAUS44 KLCH 281054
MTRP92
METAR KP92 281053Z AUTO VRB04KT 30/24 A3006 RMK AO1 SLP180 T03000244
$





000
SAUS44 KLCH 280954
MTRP92
METAR KP92 280953Z AUTO 26005KT 31/25 A3004 RMK AO1 SLP173 T03060250
$





000
SAUS44 KLCH 280855
MTRP92
METAR KP92 280853Z AUTO VRB06KT 31/24 A3003 RMK AO1 SLP170 T03060244
55012 $





000
SAUS44 KLCH 280754
MTRP92
METAR KP92 280753Z AUTO VRB06KT 31/24 A3003 RMK AO1 SLP170 T03060244
$





000
SAUS44 KLCH 280654
MTRP92
METAR KP92 280653Z AUTO VRB05KT 31/24 A3005 RMK AO1 SLP175 T03060244
$





000
SAUS44 KLCH 280554
MTRP92
METAR KP92 280553Z AUTO 27005KT 31/24 A3007 RMK AO1 SLP182 T03060244
10317 20306 403390300 50003 $





000
SAUS44 KLCH 280454
MTRP92
METAR KP92 280453Z AUTO VRB05KT 31/24 A3007 RMK AO1 SLP183 T03060244
$





000
SAUS44 KLCH 280354
MTRP92
METAR KP92 280353Z AUTO 24005KT 31/25 A3007 RMK AO1 SLP180 T03110250
$





000
SAUS44 KLCH 280254
MTRP92
METAR KP92 280253Z AUTO 24008KT 31/25 A3006 RMK AO1 SLP179 T03110250
53005 $





000
SAUS44 KLCH 280154
MTRP92
METAR KP92 280153Z AUTO VRB05KT 31/26 A3005 RMK AO1 SLP174 T03110256
$





000
SAUS44 KLCH 280054
MTRP92
METAR KP92 280053Z AUTO 22006KT 31/26 A3004 RMK AO1 SLP173 T03110261
$





000
SAUS44 KLCH 272354
MTRP92
METAR KP92 272353Z AUTO VRB06KT 32/26 A3004 RMK AO1 SLP173 T03170256
10339 20317 55004 $





000
SAUS44 KLCH 272255
MTRP92
METAR KP92 272253Z AUTO VRB05KT 33/26 A3004 RMK AO1 SLP172 T03280256
$





000
SAUS44 KLCH 272155
MTRP92
METAR KP92 272153Z AUTO 22007KT 33/26 A3005 RMK AO1 SLP176 T03330256
$





000
SAUS44 KLCH 272055
MTRP92
METAR KP92 272053Z AUTO VRB06KT 34/26 A3006 RMK AO1 SLP177 T03390256
58014 $





000
SAUS44 KLCH 271954
MTRP92
METAR KP92 271953Z AUTO VRB05KT 33/27 A3007 RMK AO1 SLP184 T03280267
$





    US Dept of Commerce
    National Oceanic and Atmospheric Administration
    National Weather Service
    1325 East West Highway
    Silver Spring, MD 20910
    Page Author: NWS Internet Services Team
Disclaimer
Information Quality
Credits
Glossary
Privacy Policy
Freedom of Information Act (FOIA)
About Us
Career Opportunities